createdAt,value
2022-10-04T00:02:02.961Z,5.63
2022-10-04T00:07:17.367Z,6.17
2022-10-04T00:12:31.564Z,8.80
2022-10-04T00:17:37.198Z,6.53
2022-10-04T00:22:45.718Z,5.87
2022-10-04T00:28:17.612Z,8.67
2022-10-04T00:33:41.925Z,6.87
2022-10-04T00:38:50.403Z,8.83
2022-10-04T00:43:58.532Z,7.03
2022-10-04T00:49:06.972Z,9.40
2022-10-04T00:54:21.252Z,11.13
2022-10-04T00:59:44.926Z,6.00
2022-10-04T01:04:56.347Z,8.43
2022-10-04T01:10:05.646Z,6.60
2022-10-04T01:15:29.278Z,8.80
2022-10-04T01:20:37.726Z,6.93
2022-10-04T01:25:48.543Z,9.27
2022-10-04T01:30:54.636Z,6.93
2022-10-04T01:36:00.185Z,8.93
2022-10-04T01:41:08.722Z,8.83
2022-10-04T01:46:17.350Z,6.50
2022-10-04T01:51:28.669Z,7.30
2022-10-04T01:56:37.172Z,9.80
2022-10-04T02:01:51.419Z,6.77
2022-10-04T02:06:59.475Z,7.27
2022-10-04T02:12:06.260Z,8.43
2022-10-04T02:17:14.182Z,7.13
2022-10-04T02:22:20.124Z,8.27
2022-10-04T02:27:31.486Z,8.73
2022-10-04T02:32:57.240Z,7.93
2022-10-04T02:38:11.650Z,7.60
2022-10-04T02:43:20.095Z,9.97
2022-10-04T02:48:36.887Z,5.07
2022-10-04T02:54:03.612Z,8.20
2022-10-04T02:59:10.672Z,4.57
2022-10-04T03:04:16.354Z,8.97
2022-10-04T03:09:29.462Z,6.07
2022-10-04T03:14:32.569Z,5.87
2022-10-04T03:19:38.970Z,5.90
2022-10-04T03:24:50.123Z,6.40
2022-10-04T03:29:59.281Z,6.30
2022-10-04T03:35:07.699Z,8.13
2022-10-04T03:40:15.611Z,5.80
2022-10-04T03:45:23.617Z,6.70
2022-10-04T03:50:33.764Z,6.70
2022-10-04T03:55:43.741Z,5.57
2022-10-04T04:01:14.955Z,9.83
2022-10-04T04:06:22.093Z,9.47
2022-10-04T04:11:29.327Z,8.70
2022-10-04T04:16:35.508Z,7.77
2022-10-04T04:21:43.143Z,7.83
2022-10-04T04:26:53.108Z,13.87
2022-10-04T04:32:04.227Z,9.03
2022-10-04T04:37:11.814Z,5.30
2022-10-04T04:42:27.684Z,6.30
2022-10-04T04:47:42.113Z,7.63
2022-10-04T04:52:56.459Z,9.10
2022-10-04T04:58:02.451Z,5.73
2022-10-04T05:03:11.881Z,8.17
2022-10-04T05:08:28.059Z,6.70
2022-10-04T05:13:42.387Z,8.55
2022-10-04T05:18:48.702Z,7.60
2022-10-04T05:23:56.281Z,9.17
2022-10-04T05:29:04.775Z,10.47
2022-10-04T05:34:28.444Z,6.57
2022-10-04T05:39:54.844Z,5.20
2022-10-04T05:45:01.555Z,6.40
2022-10-04T05:50:07.331Z,7.30
2022-10-04T05:55:31.318Z,9.07
2022-10-04T06:00:42.684Z,6.57
2022-10-04T06:05:57.699Z,6.87
2022-10-04T06:11:25.834Z,5.23
2022-10-04T06:16:55.594Z,6.43
2022-10-04T06:22:09.611Z,12.80
2022-10-04T06:27:23.845Z,17.10
2022-10-04T06:32:41.119Z,28.37
2022-10-04T06:38:10.797Z,16.77
2022-10-04T06:43:25.121Z,9.20
2022-10-04T06:48:56.654Z,21.50
2022-10-04T06:54:10.804Z,10.00
2022-10-04T06:59:27.914Z,9.53
2022-10-04T07:10:11.909Z,12.60
2022-10-04T07:15:29.417Z,6.57
2022-10-04T07:20:37.709Z,6.40
2022-10-04T07:25:52.523Z,8.13
2022-10-04T07:31:02.684Z,11.13
2022-10-04T07:36:28.828Z,7.80
2022-10-04T07:41:37.360Z,6.97
2022-10-04T07:46:57.422Z,7.03
2022-10-04T07:52:18.562Z,5.40
2022-10-04T07:57:31.186Z,10.97
2022-10-04T08:02:48.569Z,8.10
2022-10-04T08:08:21.331Z,4.80
2022-10-04T08:13:38.931Z,4.83
2022-10-04T08:19:20.655Z,4.73
2022-10-04T08:24:43.952Z,4.20
2022-10-04T08:29:55.548Z,6.83
2022-10-04T08:35:14.864Z,6.37
2022-10-04T08:40:38.609Z,6.80
2022-10-04T08:46:09.755Z,6.20
2022-10-04T08:51:42.136Z,6.50
2022-10-04T08:57:16.686Z,9.13
2022-10-04T09:02:37.586Z,4.30
2022-10-04T09:08:00.929Z,5.53
2022-10-04T09:13:31.430Z,9.80
2022-10-04T09:19:00.141Z,5.37
2022-10-04T09:24:14.423Z,4.10
2022-10-04T09:29:54.479Z,6.03
2022-10-04T09:35:06.585Z,2.83
2022-10-04T09:40:34.844Z,5.77
2022-10-04T09:45:49.157Z,4.93
2022-10-04T09:51:13.217Z,4.87
2022-10-04T09:56:47.353Z,5.23
2022-10-04T10:02:31.989Z,3.67
2022-10-04T10:07:56.856Z,6.43
2022-10-04T10:13:12.563Z,3.90
2022-10-04T10:18:23.620Z,4.50
2022-10-04T10:23:56.122Z,4.73
2022-10-04T10:29:38.016Z,3.00
2022-10-04T10:34:56.203Z,3.67
2022-10-04T10:40:38.008Z,3.63
2022-10-04T10:46:07.023Z,6.80
2022-10-04T10:51:27.984Z,3.60
2022-10-04T10:57:06.636Z,4.87
2022-10-04T11:02:49.527Z,4.13
2022-10-04T11:08:23.426Z,4.70
2022-10-04T11:13:42.697Z,3.27
2022-10-04T11:19:18.603Z,4.13
2022-10-04T11:25:00.174Z,3.07
2022-10-04T11:30:26.731Z,6.47
2022-10-04T11:35:55.632Z,3.87
2022-10-04T11:41:07.437Z,8.37
2022-10-04T11:46:24.711Z,3.17
2022-10-04T11:51:48.858Z,3.37
2022-10-04T11:57:27.815Z,6.57
2022-10-04T12:03:11.131Z,3.03
2022-10-04T12:08:29.081Z,5.60
2022-10-04T12:13:55.437Z,4.87
2022-10-04T12:19:22.094Z,4.07
2022-10-04T12:24:47.838Z,3.57
2022-10-04T12:30:28.225Z,4.00
2022-10-04T12:35:42.497Z,4.03
2022-10-04T12:40:54.104Z,3.13
2022-10-04T12:46:19.251Z,5.13
2022-10-04T12:51:39.811Z,4.43
2022-10-04T12:56:53.997Z,4.75
2022-10-04T13:02:14.252Z,4.50
2022-10-04T13:07:43.862Z,4.80
2022-10-04T13:13:08.983Z,2.37
2022-10-04T13:18:17.947Z,3.03
2022-10-04T13:23:40.869Z,2.03
2022-10-04T13:28:52.395Z,3.07
2022-10-04T13:34:25.526Z,2.87
2022-10-04T13:39:58.418Z,3.63
2022-10-04T13:45:26.305Z,1.70
2022-10-04T13:50:34.731Z,2.50
2022-10-04T13:56:03.840Z,2.13
2022-10-04T14:01:32.559Z,1.87
2022-10-04T14:06:52.439Z,3.93
2022-10-04T14:12:34.407Z,2.53
2022-10-04T14:17:48.621Z,2.57
2022-10-04T14:23:23.462Z,3.93
2022-10-04T14:28:52.875Z,3.97
2022-10-04T14:34:16.130Z,2.63
2022-10-04T14:39:42.852Z,2.63
2022-10-04T14:44:55.969Z,4.33
2022-10-04T14:50:07.140Z,2.33
2022-10-04T14:55:32.674Z,5.23
2022-10-04T15:00:57.909Z,2.80
2022-10-04T15:06:12.642Z,1.87
2022-10-04T15:11:39.966Z,2.20
2022-10-04T15:17:00.347Z,5.23
2022-10-04T15:22:15.911Z,4.00
2022-10-04T15:27:47.324Z,3.93
2022-10-04T15:33:12.344Z,2.67
2022-10-04T15:38:37.348Z,2.60
2022-10-04T15:43:51.757Z,1.77
2022-10-04T15:49:23.467Z,3.43
2022-10-04T15:54:50.043Z,2.07
2022-10-04T16:00:22.531Z,3.33
2022-10-04T16:05:40.118Z,2.17
2022-10-04T16:11:14.350Z,2.13
2022-10-04T16:16:26.002Z,4.40
2022-10-04T16:21:52.582Z,4.17
2022-10-04T16:27:05.005Z,6.93
2022-10-04T16:32:22.549Z,5.77
2022-10-04T16:37:49.248Z,3.77
2022-10-04T16:43:02.269Z,2.93
2022-10-04T16:48:39.687Z,4.57
2022-10-04T16:53:53.837Z,3.47
2022-10-04T16:59:05.139Z,2.97
2022-10-04T17:04:35.915Z,3.23
2022-10-04T17:10:08.700Z,5.47
2022-10-04T17:15:36.505Z,4.83
2022-10-04T17:20:55.508Z,4.37
2022-10-04T17:26:19.049Z,3.27
2022-10-04T17:31:42.739Z,3.80
2022-10-04T17:36:51.776Z,3.87
2022-10-04T17:42:01.285Z,4.57
2022-10-04T17:47:18.103Z,3.33
2022-10-04T17:52:51.864Z,4.20
2022-10-04T17:58:15.599Z,4.53
2022-10-04T18:03:45.324Z,4.77
2022-10-04T18:09:05.754Z,6.10
2022-10-04T18:14:39.854Z,4.60
2022-10-04T18:19:51.607Z,5.53
2022-10-04T18:25:19.842Z,6.37
2022-10-04T18:30:27.592Z,5.13
2022-10-04T18:35:37.442Z,5.47
2022-10-04T18:40:48.909Z,3.30
2022-10-04T18:52:11.157Z,5.97
2022-10-04T18:57:38.323Z,4.20
2022-10-04T19:03:11.698Z,4.60
2022-10-04T19:08:34.237Z,3.53
2022-10-04T19:13:46.959Z,4.10
2022-10-04T19:18:59.934Z,5.60
2022-10-04T19:24:17.346Z,5.90
2022-10-04T19:29:28.613Z,9.13
2022-10-04T19:34:56.422Z,5.40
2022-10-04T19:40:11.060Z,6.27
2022-10-04T19:45:53.165Z,5.43
2022-10-04T19:51:04.808Z,5.90
2022-10-04T19:56:22.589Z,4.67
2022-10-04T20:01:29.962Z,3.10
2022-10-04T20:06:37.294Z,5.47
2022-10-04T20:11:49.625Z,4.83
2022-10-04T20:16:58.206Z,4.90
2022-10-04T20:22:17.036Z,4.20
2022-10-04T20:27:28.792Z,6.83
2022-10-04T20:32:40.578Z,7.37
2022-10-04T20:38:27.306Z,6.43
2022-10-04T20:43:18.463Z,4.43
2022-10-04T20:48:29.710Z,3.47
2022-10-04T20:53:35.397Z,4.77
2022-10-04T20:58:41.493Z,5.53
2022-10-04T21:03:47.847Z,3.77
2022-10-04T21:08:53.366Z,3.90
2022-10-04T21:14:01.212Z,6.53
2022-10-04T21:19:31.331Z,4.07
2022-10-04T21:24:44.845Z,5.00
2022-10-04T21:29:50.301Z,5.73
2022-10-04T21:34:55.844Z,3.87
2022-10-04T21:40:01.413Z,3.67
2022-10-04T21:45:07.516Z,3.33
2022-10-04T21:50:13.567Z,2.97
2022-10-04T21:55:19.195Z,4.60
2022-10-04T22:00:25.631Z,6.00
2022-10-04T22:05:31.423Z,4.83
2022-10-04T22:10:36.940Z,2.53
2022-10-04T22:15:42.622Z,7.23
2022-10-04T22:20:48.075Z,3.33
2022-10-04T22:25:54.617Z,4.43
2022-10-04T22:30:59.995Z,4.67
2022-10-04T22:36:34.227Z,3.40
2022-10-04T22:41:48.192Z,3.00
2022-10-04T22:46:56.381Z,3.70
2022-10-04T22:52:05.108Z,3.73
2022-10-04T22:57:14.388Z,3.47
2022-10-04T23:02:29.197Z,2.67
2022-10-04T23:07:38.167Z,5.60
2022-10-04T23:12:43.426Z,4.30
2022-10-04T23:17:56.025Z,4.27
2022-10-04T23:23:01.672Z,4.40
2022-10-04T23:28:11.343Z,3.67
2022-10-04T23:33:22.817Z,3.73
2022-10-04T23:38:30.621Z,5.80
2022-10-04T23:43:36.573Z,3.43
2022-10-04T23:48:42.958Z,2.53
2022-10-04T23:53:51.696Z,3.27
2022-10-04T23:58:59.720Z,6.50
